Time;durP1;ratioP1;P1;durP2;ratioP2;P2;SDS_P1;SDS_P2;PMS_P1;PMS_P2;Temp;Humidity;BMP_temperature;BMP_pressure;BME280_temperature;BME280_humidity;BME280_pressure;Samples;Min_cycle;Max_cycle;Signal;HPM_P1;HPM_P2
2021/07/11 00:01:09;;;;;;;6.40;5.90;;;;;;;20.99;50.59;94324.58;828254;71;30805;-77
2021/07/11 00:16:14;;;;;;;8.48;7.20;;;;;;;20.83;51.36;94312.70;827649;71;32688;-77
2021/07/11 00:31:08;;;;;;;6.90;6.30;;;;;;;20.65;51.89;94310.32;828583;71;30070;-79
2021/07/11 00:46:14;;;;;;;6.75;6.25;;;;;;;20.61;52.15;94315.02;827584;71;32660;-76
2021/07/11 01:01:17;;;;;;;5.95;5.42;;;;;;;20.69;51.91;94308.48;827728;71;33138;-77
2021/07/11 01:16:13;;;;;;;6.45;5.85;;;;;;;20.85;51.97;94305.69;828371;71;30162;-76
2021/07/11 01:31:09;;;;;;;6.40;6.00;;;;;;;20.92;52.13;94294.55;824589;71;29695;-75
2021/07/11 01:46:18;;;;;;;7.50;6.80;;;;;;;20.93;52.23;94303.34;834025;71;32703;-78
2021/07/11 02:01:14;;;;;;;7.25;6.75;;;;;;;20.90;51.93;94300.03;834026;71;31487;-77
2021/07/11 02:16:10;;;;;;;7.10;6.50;;;;;;;20.81;52.01;94320.30;828391;71;30216;-76
2021/07/11 02:31:14;;;;;;;8.03;7.20;;;;;;;20.80;53.57;94330.20;827660;71;32682;-75
2021/07/11 02:46:17;;;;;;;8.08;7.47;;;;;;;20.72;54.08;94330.42;827548;71;33177;-79
2021/07/11 03:16:21;;;;;;;7.50;6.80;;;;;;;20.15;54.43;94364.27;834063;71;32658;-76
2021/07/11 03:31:15;;;;;;;8.23;7.50;;;;;;;20.36;54.97;94340.46;827614;71;32711;-78
2021/07/11 03:46:16;;;;;;;8.50;7.90;;;;;;;21.07;54.02;94360.91;827805;71;33146;-77
2021/07/11 04:01:18;;;;;;;9.95;9.10;;;;;;;21.91;52.58;94371.06;828148;71;32809;-78
2021/07/11 04:16:17;;;;;;;9.93;9.03;;;;;;;22.91;50.12;94379.96;827782;71;32842;-77
2021/07/11 04:31:15;;;;;;;10.50;9.50;;;;;;;24.01;47.47;94377.89;834050;71;33264;-76
2021/07/11 04:46:09;;;;;;;8.10;7.30;;;;;;;24.33;45.33;94386.06;829821;71;30692;-77
2021/07/11 05:01:09;;;;;;;10.37;8.03;;;;;;;24.79;44.58;94392.12;828481;71;29693;-73
2021/07/11 05:16:15;;;;;;;7.97;7.13;;;;;;;25.13;43.74;94391.77;828080;71;32692;-80
2021/07/11 05:31:11;;;;;;;9.10;8.30;;;;;;;24.56;45.66;94389.02;829276;71;30304;-78
2021/07/11 05:46:14;;;;;;;8.93;8.03;;;;;;;24.20;46.82;94386.19;827550;71;32649;-76
2021/07/11 06:01:08;;;;;;;8.93;8.23;;;;;;;23.94;47.73;94383.20;833951;71;29770;-75
2021/07/11 06:16:15;;;;;;;10.87;9.97;;;;;;;24.04;47.95;94380.38;827671;71;32815;-81
2021/07/11 06:31:14;;;;;;;11.00;10.00;;;;;;;24.32;47.43;94376.46;828274;71;32663;-85
2021/07/11 06:46:17;;;;;;;9.90;8.90;;;;;;;25.02;46.65;94368.19;834776;71;32733;-82
2021/07/11 07:01:14;;;;;;;9.10;8.30;;;;;;;25.03;45.86;94367.61;793285;74;33283;-79
2021/07/11 07:16:12;;;;;;;8.17;7.47;;;;;;;25.15;43.02;94364.54;834245;71;32794;-77
2021/07/11 07:31:08;;;;;;;8.00;7.30;;;;;;;25.85;40.58;94355.99;834358;71;29818;-78
2021/07/11 07:46:12;;;;;;;8.50;6.53;;;;;;;;;;820491;71;32792;-86
2021/07/11 08:01:49;;;;;;;;;;;;;;;;;;;;;
2021/07/11 08:16:14;;;;;;;7.93;7.30;;;;;;;27.34;39.00;94354.23;834869;71;32857;-87
2021/07/11 08:31:14;;;;;;;12.10;7.57;;;;;;;27.58;37.96;94349.77;808156;71;32832;-88
2021/07/11 08:46:12;;;;;;;8.53;7.27;;;;;;;27.70;36.82;94356.59;794262;74;32146;-81
2021/07/11 09:16:16;;;;;;;6.90;6.40;;;;;;;28.33;34.42;94326.58;834431;71;33496;-82
2021/07/11 09:31:19;;;;;;;7.43;6.73;;;;;;;28.70;32.14;94337.08;834100;71;29704;-80
2021/07/11 09:46:16;;;;;;;6.83;6.23;;;;;;;29.46;32.30;94319.86;830029;71;29418;-78
2021/07/11 10:01:18;;;;;;;6.33;5.80;;;;;;;30.01;29.26;94304.16;828364;71;32651;-83
2021/07/11 10:16:11;;;;;;;6.03;5.63;;;;;;;29.61;31.45;94302.02;834662;71;30308;-82
2021/07/11 10:31:29;;;;;;;6.57;5.97;;;;;;;29.71;31.00;94281.55;835102;71;29971;-78
2021/07/11 10:46:08;;;;;;;6.13;5.63;;;;;;;30.52;30.17;94277.55;828530;71;29877;-78
2021/07/11 11:01:21;;;;;;;5.33;5.03;;;;;;;30.42;27.74;94260.95;827526;71;32699;-78
2021/07/11 11:16:17;;;;;;;5.80;5.33;;;;;;;30.44;26.60;94238.87;834265;71;29371;-80
2021/07/11 11:31:17;;;;;;;5.63;5.23;;;;;;;29.85;26.76;94227.74;828830;71;32573;-80
2021/07/11 11:46:09;;;;;;;5.93;5.53;;;;;;;29.79;26.67;94216.48;828489;71;30081;-78
2021/07/11 12:01:43;;;;;;;6.70;6.30;;;;;;;30.29;29.10;94202.62;824576;71;32727;-82
2021/07/11 12:16:14;;;;;;;7.13;6.50;;;;;;;30.14;28.47;94210.28;828300;71;31545;-80
2021/07/11 12:31:19;;;;;;;6.03;5.63;;;;;;;30.26;26.52;94199.98;834062;71;32761;-79
2021/07/11 12:46:30;;;;;;;6.78;6.17;;;;;;;30.10;26.91;94184.48;827476;71;32728;-80
2021/07/11 13:01:15;;;;;;;7.10;6.60;;;;;;;29.99;27.92;94179.89;828835;71;30831;-80
2021/07/11 13:16:14;;;;;;;6.47;5.93;;;;;;;30.09;26.89;94171.55;828032;71;31749;-81
2021/07/11 13:31:08;;;;;;;7.87;7.27;;;;;;;29.99;27.91;94147.42;835954;71;28648;-80
2021/07/11 13:46:15;;;;;;;7.40;6.80;;;;;;;29.71;28.42;94141.48;828138;71;31724;-79
2021/07/11 14:01:08;;;;;;;8.70;8.00;;;;;;;29.88;30.11;94118.66;828631;71;28409;-79
2021/07/11 14:16:14;;;;;;;8.97;8.27;;;;;;;29.53;30.40;94109.38;834083;71;31715;-79
2021/07/11 14:31:10;;;;;;;8.70;7.90;;;;;;;29.45;30.17;94102.01;834352;71;28780;-77
2021/07/11 14:46:15;;;;;;;8.40;7.80;;;;;;;29.55;29.89;94093.50;827785;71;32678;-79
2021/07/11 15:16:08;;;;;;;7.43;6.90;;;;;;;29.74;29.97;94096.00;829797;71;28628;-78
2021/07/11 15:31:09;;;;;;;7.30;6.70;;;;;;;29.70;29.36;94082.52;828711;71;27534;-76
2021/07/11 15:46:14;;;;;;;7.20;6.70;;;;;;;29.67;29.61;94077.97;834299;71;30636;-80
2021/07/11 16:01:11;;;;;;;7.03;6.53;;;;;;;29.53;29.30;94091.20;828492;71;29005;-77
2021/07/11 16:16:09;;;;;;;7.10;6.60;;;;;;;29.36;29.48;94101.23;828181;71;28332;-77
2021/07/11 16:31:09;;;;;;;7.90;7.20;;;;;;;29.12;29.98;94116.03;834011;71;27955;-80
2021/07/11 16:46:08;;;;;;;6.90;6.40;;;;;;;28.90;30.39;94121.80;828647;71;29568;-78
2021/07/11 17:01:08;;;;;;;7.73;7.03;;;;;;;28.59;31.75;94140.70;828505;71;30071;-81
2021/07/11 17:16:15;;;;;;;7.67;7.00;;;;;;;28.24;31.97;94155.69;827350;71;32738;-82
2021/07/11 17:31:14;;;;;;;9.83;9.00;;;;;;;27.79;39.87;94184.27;828103;71;33202;-82
2021/07/11 17:46:17;;;;;;;10.93;9.83;;;;;;;27.23;42.67;94204.80;829163;71;32830;-85
2021/07/11 18:01:14;;;;;;;10.43;9.30;;;;;;;27.06;41.18;165805.31;827670;71;33189;-83
2021/07/11 18:16:14;;;;;;;9.00;8.10;;;;;;;26.76;38.34;94235.41;828699;71;31743;-82
2021/07/11 18:31:16;;;;;;;10.53;9.70;;;;;;;26.49;40.05;94247.34;827487;71;32765;-77
2021/07/11 18:46:15;;;;;;;10.10;9.20;;;;;;;26.21;42.37;94267.13;828353;71;33128;-79
2021/07/11 19:01:09;;;;;;;10.57;9.67;;;;;;;25.88;44.31;94266.50;820162;71;30362;-77
2021/07/11 19:16:10;;;;;;;10.40;9.50;;;;;;;25.56;45.95;94270.84;834608;71;30791;-82
2021/07/11 19:31:09;;;;;;;10.90;9.80;;;;;;;25.31;47.45;94295.69;828604;71;30279;-84
2021/07/11 19:46:25;;;;;;;11.53;10.60;;;;;;;25.13;49.15;94301.80;786222;73;33058;-82
2021/07/11 20:01:15;;;;;;;11.50;10.50;;;;;;;24.90;49.48;94279.95;827497;71;33218;-80
2021/07/11 20:17:00;;;;;;;13.00;11.03;;;;;;;24.68;52.69;94272.52;810201;72;33372;-81
2021/07/11 20:31:31;;;;;;;12.90;11.60;;;;;;;24.24;53.40;94258.83;828469;71;32977;-82
2021/07/11 20:46:27;;;;;;;13.47;12.20;;;;;;;24.11;54.39;94305.36;824261;71;33350;-87
2021/07/11 21:16:08;;;;;;;12.10;10.97;;;;;;;23.82;54.30;94303.89;821006;71;29804;-81
2021/07/11 21:31:17;;;;;;;12.10;11.10;;;;;;;23.52;55.69;94303.55;824873;71;32922;-81
2021/07/11 21:46:28;;;;;;;11.10;10.00;;;;;;;23.46;54.86;94304.27;826129;71;32939;-77
2021/07/11 22:01:09;;;;;;;11.40;10.30;;;;;;;23.11;56.23;94286.28;821331;71;29870;-77
2021/07/11 22:16:08;;;;;;;11.23;10.17;;;;;;;22.85;56.83;94293.14;823606;71;30080;-77
2021/07/11 22:31:16;;;;;;;11.97;10.87;;;;;;;22.76;57.42;94296.14;835669;71;32757;-79
2021/07/11 22:46:16;;;;;;;11.77;10.70;;;;;;;22.82;57.21;94296.58;827927;71;32785;-78
2021/07/11 23:01:14;;;;;;;11.40;10.33;;;;;;;22.78;57.85;94321.38;827549;71;32664;-78
2021/07/11 23:16:15;;;;;;;10.60;9.60;;;;;;;22.67;58.54;94316.52;833974;71;32715;-76
2021/07/11 23:31:12;;;;;;;10.40;9.50;;;;;;;22.50;58.95;94314.45;828541;71;32042;-80
2021/07/11 23:46:09;;;;;;;11.03;9.93;;;;;;;22.45;59.22;94320.91;834125;71;30734;-76
